sensor_id;sensor_type;location;lat;lon;timestamp;pressure;altitude;pressure_sealevel;temperature;humidity
56400;BME280;42298;53.638;9.876;2022-10-31T00:01:31;101647.75;;;15.36;67.09
56400;BME280;42298;53.638;9.876;2022-10-31T00:03:57;101646.97;;;15.36;67.49
56400;BME280;42298;53.638;9.876;2022-10-31T00:06:22;101646.78;;;15.32;67.59
56400;BME280;42298;53.638;9.876;2022-10-31T00:08:53;101658.75;;;15.41;67.51
56400;BME280;42298;53.638;9.876;2022-10-31T00:11:18;101653.84;;;15.38;67.29
56400;BME280;42298;53.638;9.876;2022-10-31T00:13:44;101656.09;;;15.36;67.59
56400;BME280;42298;53.638;9.876;2022-10-31T00:16:17;101655.34;;;15.44;67.19
56400;BME280;42298;53.638;9.876;2022-10-31T00:18:43;101652.69;;;15.39;67.25
56400;BME280;42298;53.638;9.876;2022-10-31T00:21:09;101653.69;;;15.43;68.14
56400;BME280;42298;53.638;9.876;2022-10-31T00:23:34;101675.44;;;15.50;67.87
56400;BME280;42298;53.638;9.876;2022-10-31T00:26:00;101667.47;;;15.57;67.03
56400;BME280;42298;53.638;9.876;2022-10-31T00:28:26;101662.06;;;15.52;67.27
56400;BME280;42298;53.638;9.876;2022-10-31T00:30:52;101676.63;;;15.57;67.26
56400;BME280;42298;53.638;9.876;2022-10-31T00:33:17;101669.94;;;15.58;67.30
56400;BME280;42298;53.638;9.876;2022-10-31T00:35:49;101662.28;;;15.64;67.86
56400;BME280;42298;53.638;9.876;2022-10-31T00:38:14;101661.47;;;15.63;68.45
56400;BME280;42298;53.638;9.876;2022-10-31T00:40:40;101659.19;;;15.65;68.98
56400;BME280;42298;53.638;9.876;2022-10-31T00:43:05;101647.91;;;15.70;68.94
56400;BME280;42298;53.638;9.876;2022-10-31T00:45:30;101652.69;;;15.70;68.03
56400;BME280;42298;53.638;9.876;2022-10-31T00:47:55;101659.53;;;15.72;67.94
56400;BME280;42298;53.638;9.876;2022-10-31T00:50:21;101659.53;;;15.72;67.78
56400;BME280;42298;53.638;9.876;2022-10-31T00:52:46;101670.97;;;15.71;67.85
56400;BME280;42298;53.638;9.876;2022-10-31T00:55:11;101659.84;;;15.71;67.90
56400;BME280;42298;53.638;9.876;2022-10-31T00:57:36;101662.94;;;15.69;68.36
56400;BME280;42298;53.638;9.876;2022-10-31T01:00:03;101662.50;;;15.76;67.84
56400;BME280;42298;53.638;9.876;2022-10-31T01:02:28;101664.25;;;15.72;67.16
56400;BME280;42298;53.638;9.876;2022-10-31T01:04:53;101678.00;;;15.68;67.63
56400;BME280;42298;53.638;9.876;2022-10-31T01:07:18;101678.00;;;15.68;67.51
56400;BME280;42298;53.638;9.876;2022-10-31T01:09:44;101683.53;;;15.68;67.27
56400;BME280;42298;53.638;9.876;2022-10-31T01:12:09;101681.88;;;15.67;67.44
56400;BME280;42298;53.638;9.876;2022-10-31T01:14:34;101691.56;;;15.70;67.86
56400;BME280;42298;53.638;9.876;2022-10-31T01:17:00;101691.03;;;15.68;67.89
56400;BME280;42298;53.638;9.876;2022-10-31T01:19:25;101690.06;;;15.64;67.53
56400;BME280;42298;53.638;9.876;2022-10-31T01:21:54;101695.97;;;15.71;69.05
56400;BME280;42298;53.638;9.876;2022-10-31T01:24:19;101689.91;;;15.69;67.88
56400;BME280;42298;53.638;9.876;2022-10-31T01:26:44;101694.66;;;15.68;68.26
56400;BME280;42298;53.638;9.876;2022-10-31T01:29:09;101703.00;;;15.68;67.87
56400;BME280;42298;53.638;9.876;2022-10-31T01:31:37;101703.13;;;15.72;66.86
56400;BME280;42298;53.638;9.876;2022-10-31T01:34:03;101708.38;;;15.73;66.88
56400;BME280;42298;53.638;9.876;2022-10-31T01:36:37;101708.56;;;15.77;68.23
56400;BME280;42298;53.638;9.876;2022-10-31T01:39:05;101705.97;;;15.80;68.26
56400;BME280;42298;53.638;9.876;2022-10-31T01:41:33;101698.63;;;15.84;67.72
56400;BME280;42298;53.638;9.876;2022-10-31T01:47:17;101712.38;;;15.89;69.17
56400;BME280;42298;53.638;9.876;2022-10-31T01:49:47;101715.16;;;15.89;70.51
56400;BME280;42298;53.638;9.876;2022-10-31T01:52:33;101716.97;;;15.94;70.51
56400;BME280;42298;53.638;9.876;2022-10-31T01:55:06;101719.06;;;15.88;68.88
56400;BME280;42298;53.638;9.876;2022-10-31T01:57:33;101723.81;;;15.88;70.77
56400;BME280;42298;53.638;9.876;2022-10-31T02:00:04;101724.81;;;15.92;70.72
56400;BME280;42298;53.638;9.876;2022-10-31T02:02:30;101727.44;;;15.97;70.50
56400;BME280;42298;53.638;9.876;2022-10-31T02:04:57;101716.47;;;16.00;70.98
56400;BME280;42298;53.638;9.876;2022-10-31T02:07:27;101722.88;;;16.09;71.07
56400;BME280;42298;53.638;9.876;2022-10-31T02:09:56;101725.19;;;16.16;71.43
56400;BME280;42298;53.638;9.876;2022-10-31T02:12:22;101724.88;;;16.17;69.78
56400;BME280;42298;53.638;9.876;2022-10-31T02:14:48;101724.88;;;16.17;69.62
56400;BME280;42298;53.638;9.876;2022-10-31T02:17:14;101734.84;;;16.18;69.79
56400;BME280;42298;53.638;9.876;2022-10-31T02:19:54;101738.47;;;16.27;69.92
56400;BME280;42298;53.638;9.876;2022-10-31T02:22:27;101740.59;;;16.30;69.74
56400;BME280;42298;53.638;9.876;2022-10-31T02:25:08;101738.66;;;16.31;69.21
56400;BME280;42298;53.638;9.876;2022-10-31T02:33:26;101752.38;;;16.27;71.34
56400;BME280;42298;53.638;9.876;2022-10-31T02:36:01;101755.00;;;16.24;71.71
56400;BME280;42298;53.638;9.876;2022-10-31T02:38:38;101756.63;;;16.25;71.87
56400;BME280;42298;53.638;9.876;2022-10-31T02:46:19;101746.97;;;16.22;73.53
56400;BME280;42298;53.638;9.876;2022-10-31T02:48:48;101749.75;;;16.22;73.22
56400;BME280;42298;53.638;9.876;2022-10-31T02:51:16;101751.72;;;16.22;73.15
56400;BME280;42298;53.638;9.876;2022-10-31T02:53:42;101746.16;;;16.22;73.82
56400;BME280;42298;53.638;9.876;2022-10-31T02:56:16;101758.75;;;16.28;74.04
56400;BME280;42298;53.638;9.876;2022-10-31T02:59:02;101761.72;;;16.31;74.14
56400;BME280;42298;53.638;9.876;2022-10-31T03:04:41;101757.78;;;16.32;74.49
56400;BME280;42298;53.638;9.876;2022-10-31T03:12:27;101773.50;;;16.37;74.81
56400;BME280;42298;53.638;9.876;2022-10-31T03:17:50;101773.88;;;16.44;73.63
56400;BME280;42298;53.638;9.876;2022-10-31T03:20:23;101776.63;;;16.44;73.31
56400;BME280;42298;53.638;9.876;2022-10-31T03:22:52;101788.38;;;16.41;73.33
56400;BME280;42298;53.638;9.876;2022-10-31T03:25:18;101782.81;;;16.32;73.49
56400;BME280;42298;53.638;9.876;2022-10-31T03:27:45;101791.34;;;16.36;73.59
56400;BME280;42298;53.638;9.876;2022-10-31T03:30:11;101785.06;;;16.30;73.59
56400;BME280;42298;53.638;9.876;2022-10-31T03:32:46;101787.72;;;16.35;73.61
56400;BME280;42298;53.638;9.876;2022-10-31T03:35:15;101792.28;;;16.31;73.86
56400;BME280;42298;53.638;9.876;2022-10-31T03:37:42;101797.34;;;16.29;73.85
56400;BME280;42298;53.638;9.876;2022-10-31T03:40:08;101795.06;;;16.31;73.49
56400;BME280;42298;53.638;9.876;2022-10-31T03:42:40;101798.97;;;16.30;73.66
56400;BME280;42298;53.638;9.876;2022-10-31T03:47:32;101802.91;;;16.29;73.65
56400;BME280;42298;53.638;9.876;2022-10-31T03:49:59;101801.75;;;16.30;73.68
56400;BME280;42298;53.638;9.876;2022-10-31T03:52:45;101819.59;;;16.29;73.71
56400;BME280;42298;53.638;9.876;2022-10-31T03:55:19;101816.16;;;16.24;74.14
56400;BME280;42298;53.638;9.876;2022-10-31T03:58:19;101820.88;;;16.23;74.30
56400;BME280;42298;53.638;9.876;2022-10-31T04:00:44;101818.88;;;16.15;74.64
56400;BME280;42298;53.638;9.876;2022-10-31T04:03:15;101820.84;;;16.15;75.12
56400;BME280;42298;53.638;9.876;2022-10-31T04:05:43;101826.88;;;16.17;75.08
56400;BME280;42298;53.638;9.876;2022-10-31T04:08:16;101826.56;;;16.18;74.98
56400;BME280;42298;53.638;9.876;2022-10-31T04:10:44;101824.31;;;16.20;74.72
56400;BME280;42298;53.638;9.876;2022-10-31T04:13:14;101818.22;;;16.18;74.88
56400;BME280;42298;53.638;9.876;2022-10-31T04:15:43;101819.91;;;16.19;74.46
56400;BME280;42298;53.638;9.876;2022-10-31T04:18:09;101830.19;;;16.19;75.02
56400;BME280;42298;53.638;9.876;2022-10-31T04:20:37;101833.16;;;16.22;74.91
56400;BME280;42298;53.638;9.876;2022-10-31T04:23:05;101827.09;;;16.20;74.79
56400;BME280;42298;53.638;9.876;2022-10-31T04:25:33;101827.72;;;16.17;75.08
56400;BME280;42298;53.638;9.876;2022-10-31T04:27:58;101830.19;;;16.19;75.19
56400;BME280;42298;53.638;9.876;2022-10-31T04:30:23;101828.56;;;16.18;75.17
56400;BME280;42298;53.638;9.876;2022-10-31T04:32:49;101835.94;;;16.22;74.82
56400;BME280;42298;53.638;9.876;2022-10-31T04:35:14;101838.22;;;16.29;74.93
56400;BME280;42298;53.638;9.876;2022-10-31T04:37:41;101834.00;;;16.31;75.04
56400;BME280;42298;53.638;9.876;2022-10-31T04:40:07;101846.09;;;16.35;74.83
56400;BME280;42298;53.638;9.876;2022-10-31T04:42:32;101845.59;;;16.33;75.78
56400;BME280;42298;53.638;9.876;2022-10-31T04:44:57;101848.38;;;16.33;76.11
56400;BME280;42298;53.638;9.876;2022-10-31T04:47:23;101846.28;;;16.39;75.77
56400;BME280;42298;53.638;9.876;2022-10-31T04:49:48;101853.03;;;16.46;76.26
56400;BME280;42298;53.638;9.876;2022-10-31T04:52:13;101847.34;;;16.51;76.01
56400;BME280;42298;53.638;9.876;2022-10-31T04:54:39;101851.09;;;16.55;76.24
56400;BME280;42298;53.638;9.876;2022-10-31T04:57:04;101853.22;;;16.58;76.01
56400;BME280;42298;53.638;9.876;2022-10-31T04:59:29;101857.03;;;16.62;76.35
56400;BME280;42298;53.638;9.876;2022-10-31T05:01:55;101855.72;;;16.68;76.35
56400;BME280;42298;53.638;9.876;2022-10-31T05:04:20;101865.25;;;16.76;75.60
56400;BME280;42298;53.638;9.876;2022-10-31T05:06:45;101857.03;;;16.79;75.72
56400;BME280;42298;53.638;9.876;2022-10-31T05:09:10;101853.94;;;16.81;75.84
56400;BME280;42298;53.638;9.876;2022-10-31T05:11:36;101852.16;;;16.85;75.76
56400;BME280;42298;53.638;9.876;2022-10-31T05:14:02;101858.88;;;16.92;75.52
56400;BME280;42298;53.638;9.876;2022-10-31T05:16:27;101857.09;;;16.96;75.69
56400;BME280;42298;53.638;9.876;2022-10-31T05:18:53;101847.59;;;16.97;75.36
56400;BME280;42298;53.638;9.876;2022-10-31T05:21:18;101856.09;;;17.01;75.18
56400;BME280;42298;53.638;9.876;2022-10-31T05:23:43;101853.16;;;16.97;75.53
56400;BME280;42298;53.638;9.876;2022-10-31T05:26:09;101856.44;;;16.99;75.15
56400;BME280;42298;53.638;9.876;2022-10-31T05:28:34;101866.09;;;17.02;75.64
56400;BME280;42298;53.638;9.876;2022-10-31T05:30:59;101859.88;;;17.05;75.56
56400;BME280;42298;53.638;9.876;2022-10-31T05:33:24;101845.28;;;17.08;75.62
56400;BME280;42298;53.638;9.876;2022-10-31T05:35:50;101844.97;;;17.09;75.32
56400;BME280;42298;53.638;9.876;2022-10-31T05:38:15;101854.00;;;17.15;75.05
56400;BME280;42298;53.638;9.876;2022-10-31T05:40:42;101854.97;;;17.19;75.32
56400;BME280;42298;53.638;9.876;2022-10-31T05:43:07;101857.75;;;17.28;75.03
56400;BME280;42298;53.638;9.876;2022-10-31T05:45:32;101843.84;;;17.28;74.91
56400;BME280;42298;53.638;9.876;2022-10-31T05:47:59;101855.78;;;17.37;74.41
56400;BME280;42298;53.638;9.876;2022-10-31T05:50:27;101856.63;;;17.37;74.34
56400;BME280;42298;53.638;9.876;2022-10-31T05:55:21;101857.09;;;17.31;74.30
56400;BME280;42298;53.638;9.876;2022-10-31T05:57:48;101854.50;;;17.26;74.48
56400;BME280;42298;53.638;9.876;2022-10-31T06:00:13;101857.44;;;17.29;74.46
56400;BME280;42298;53.638;9.876;2022-10-31T06:02:39;101867.91;;;17.32;74.80
56400;BME280;42298;53.638;9.876;2022-10-31T06:05:04;101865.31;;;17.36;74.61
56400;BME280;42298;53.638;9.876;2022-10-31T06:07:34;101879.41;;;17.48;74.61
56400;BME280;42298;53.638;9.876;2022-10-31T06:10:01;101873.34;;;17.46;74.33
56400;BME280;42298;53.638;9.876;2022-10-31T06:12:26;101885.13;;;17.51;73.91
56400;BME280;42298;53.638;9.876;2022-10-31T06:14:51;101884.81;;;17.53;74.22
56400;BME280;42298;53.638;9.876;2022-10-31T06:17:17;101881.69;;;17.54;73.54
56400;BME280;42298;53.638;9.876;2022-10-31T06:19:43;101884.00;;;17.61;73.26
56400;BME280;42298;53.638;9.876;2022-10-31T06:22:09;101886.94;;;17.56;72.91
56400;BME280;42298;53.638;9.876;2022-10-31T06:24:36;101868.28;;;17.48;73.57
56400;BME280;42298;53.638;9.876;2022-10-31T06:27:02;101871.88;;;17.48;74.07
56400;BME280;42298;53.638;9.876;2022-10-31T06:29:27;101868.09;;;17.53;73.73
56400;BME280;42298;53.638;9.876;2022-10-31T06:31:53;101864.50;;;17.52;73.27
56400;BME280;42298;53.638;9.876;2022-10-31T06:34:18;101864.97;;;17.54;73.88
56400;BME280;42298;53.638;9.876;2022-10-31T06:36:45;101880.38;;;17.60;73.55
56400;BME280;42298;53.638;9.876;2022-10-31T06:39:11;101891.53;;;17.60;73.41
56400;BME280;42298;53.638;9.876;2022-10-31T06:41:36;101883.16;;;17.60;73.50
56400;BME280;42298;53.638;9.876;2022-10-31T06:44:01;101893.81;;;17.67;73.27
56400;BME280;42298;53.638;9.876;2022-10-31T06:46:27;101892.53;;;17.64;73.61
56400;BME280;42298;53.638;9.876;2022-10-31T06:48:52;101892.66;;;17.68;73.60
56400;BME280;42298;53.638;9.876;2022-10-31T06:51:17;101900.69;;;17.69;72.80
56400;BME280;42298;53.638;9.876;2022-10-31T06:53:42;101903.47;;;17.69;72.96
56400;BME280;42298;53.638;9.876;2022-10-31T06:56:08;101912.16;;;17.68;73.10
56400;BME280;42298;53.638;9.876;2022-10-31T06:58:33;101918.25;;;17.61;73.28
56400;BME280;42298;53.638;9.876;2022-10-31T07:00:59;101919.38;;;17.60;73.63
56400;BME280;42298;53.638;9.876;2022-10-31T07:03:25;101925.47;;;17.54;72.47
56400;BME280;42298;53.638;9.876;2022-10-31T07:05:50;101922.63;;;17.37;74.27
56400;BME280;42298;53.638;9.876;2022-10-31T07:08:15;101916.59;;;17.35;74.27
56400;BME280;42298;53.638;9.876;2022-10-31T07:10:42;101928.69;;;17.39;74.44
56400;BME280;42298;53.638;9.876;2022-10-31T07:13:13;101933.94;;;17.40;73.51
56400;BME280;42298;53.638;9.876;2022-10-31T07:15:42;101933.94;;;17.40;73.77
56400;BME280;42298;53.638;9.876;2022-10-31T07:18:09;101940.03;;;17.42;73.65
56400;BME280;42298;53.638;9.876;2022-10-31T07:20:35;101944.25;;;17.40;73.81
56400;BME280;42298;53.638;9.876;2022-10-31T07:23:00;101956.44;;;17.44;73.97
56400;BME280;42298;53.638;9.876;2022-10-31T07:25:26;101948.06;;;17.44;73.55
56400;BME280;42298;53.638;9.876;2022-10-31T07:27:52;101949.81;;;17.40;73.96
56400;BME280;42298;53.638;9.876;2022-10-31T07:30:18;101944.47;;;17.43;74.57
56400;BME280;42298;53.638;9.876;2022-10-31T07:32:50;101950.88;;;17.44;73.64
56400;BME280;42298;53.638;9.876;2022-10-31T07:35:18;101943.78;;;17.38;74.18
56400;BME280;42298;53.638;9.876;2022-10-31T07:37:44;101948.53;;;17.29;73.79
56400;BME280;42298;53.638;9.876;2022-10-31T07:40:10;101949.97;;;17.26;74.58
56400;BME280;42298;53.638;9.876;2022-10-31T07:42:40;101949.66;;;17.28;74.11
56400;BME280;42298;53.638;9.876;2022-10-31T07:45:07;101949.16;;;17.26;74.05
56400;BME280;42298;53.638;9.876;2022-10-31T07:50:05;101950.97;;;17.30;73.70
56400;BME280;42298;53.638;9.876;2022-10-31T07:52:30;101957.84;;;17.24;73.97
56400;BME280;42298;53.638;9.876;2022-10-31T07:54:56;101960.44;;;17.12;73.96
56400;BME280;42298;53.638;9.876;2022-10-31T07:57:21;101968.28;;;17.10;74.33
56400;BME280;42298;53.638;9.876;2022-10-31T07:59:46;101960.91;;;17.05;75.01
56400;BME280;42298;53.638;9.876;2022-10-31T08:02:11;101962.25;;;17.17;74.53
56400;BME280;42298;53.638;9.876;2022-10-31T08:04:37;101959.63;;;17.20;74.20
56400;BME280;42298;53.638;9.876;2022-10-31T08:07:02;101967.66;;;17.13;74.21
56400;BME280;42298;53.638;9.876;2022-10-31T08:09:28;101965.19;;;17.11;74.88
56400;BME280;42298;53.638;9.876;2022-10-31T08:11:53;101953.41;;;17.23;74.19
56400;BME280;42298;53.638;9.876;2022-10-31T08:14:18;101954.56;;;17.22;74.17
56400;BME280;42298;53.638;9.876;2022-10-31T08:16:44;101964.22;;;17.25;73.80
56400;BME280;42298;53.638;9.876;2022-10-31T08:19:09;101959.63;;;17.20;73.83
56400;BME280;42298;53.638;9.876;2022-10-31T08:21:35;101957.66;;;17.21;74.42
56400;BME280;42298;53.638;9.876;2022-10-31T08:24:01;101971.72;;;17.15;74.61
56400;BME280;42298;53.638;9.876;2022-10-31T08:26:26;101954.38;;;17.10;74.71
56400;BME280;42298;53.638;9.876;2022-10-31T08:28:51;101954.56;;;17.22;75.15
56400;BME280;42298;53.638;9.876;2022-10-31T08:31:17;101962.91;;;17.31;74.47
56400;BME280;42298;53.638;9.876;2022-10-31T08:33:43;101963.94;;;17.35;73.29
56400;BME280;42298;53.638;9.876;2022-10-31T08:36:09;101963.56;;;17.28;73.82
56400;BME280;42298;53.638;9.876;2022-10-31T08:38:34;101956.88;;;17.29;73.62
56400;BME280;42298;53.638;9.876;2022-10-31T08:40:59;101952.94;;;17.30;73.23
56400;BME280;42298;53.638;9.876;2022-10-31T08:43:24;101963.56;;;17.28;73.28
56400;BME280;42298;53.638;9.876;2022-10-31T08:45:50;101960.97;;;17.23;73.74
56400;BME280;42298;53.638;9.876;2022-10-31T08:48:16;101968.66;;;17.26;74.30
56400;BME280;42298;53.638;9.876;2022-10-31T08:50:43;101964.06;;;17.30;74.31
56400;BME280;42298;53.638;9.876;2022-10-31T08:53:27;101964.72;;;17.35;74.37
56400;BME280;42298;53.638;9.876;2022-10-31T08:55:55;101977.53;;;17.36;74.25
56400;BME280;42298;53.638;9.876;2022-10-31T08:58:21;101984.41;;;17.39;74.78
56400;BME280;42298;53.638;9.876;2022-10-31T09:00:49;101982.16;;;17.49;74.51
56400;BME280;42298;53.638;9.876;2022-10-31T09:03:20;101977.88;;;17.60;73.88
56400;BME280;42298;53.638;9.876;2022-10-31T09:05:46;101968.41;;;17.61;74.02
56400;BME280;42298;53.638;9.876;2022-10-31T09:08:12;101963.31;;;17.72;74.43
56400;BME280;42298;53.638;9.876;2022-10-31T09:10:38;101956.75;;;17.85;74.10
56400;BME280;42298;53.638;9.876;2022-10-31T09:13:09;101959.03;;;18.00;74.08
56400;BME280;42298;53.638;9.876;2022-10-31T09:15:37;101959.88;;;18.00;73.97
56400;BME280;42298;53.638;9.876;2022-10-31T09:18:07;101951.47;;;18.09;72.59
56400;BME280;42298;53.638;9.876;2022-10-31T09:20:33;101950.97;;;18.15;71.65
56400;BME280;42298;53.638;9.876;2022-10-31T09:23:01;101948.50;;;18.22;72.35
56400;BME280;42298;53.638;9.876;2022-10-31T09:25:27;101945.88;;;18.26;72.65
56400;BME280;42298;53.638;9.876;2022-10-31T09:28:00;101942.41;;;18.29;71.20
56400;BME280;42298;53.638;9.876;2022-10-31T09:30:31;101945.38;;;18.24;71.88
56400;BME280;42298;53.638;9.876;2022-10-31T09:32:57;101942.75;;;18.19;72.72
56400;BME280;42298;53.638;9.876;2022-10-31T09:35:24;101941.75;;;18.23;72.20
56400;BME280;42298;53.638;9.876;2022-10-31T09:37:56;101945.19;;;18.20;71.75
56400;BME280;42298;53.638;9.876;2022-10-31T09:40:29;101954.75;;;18.11;72.02
56400;BME280;42298;53.638;9.876;2022-10-31T09:43:19;101946.59;;;17.97;72.12
56400;BME280;42298;53.638;9.876;2022-10-31T09:50:54;101977.06;;;18.11;73.27
56400;BME280;42298;53.638;9.876;2022-10-31T09:55:57;101982.59;;;18.28;72.81
56400;BME280;42298;53.638;9.876;2022-10-31T09:58:26;101977.84;;;18.37;72.96
56400;BME280;42298;53.638;9.876;2022-10-31T10:00:54;101967.47;;;18.46;72.28
56400;BME280;42298;53.638;9.876;2022-10-31T10:03:41;101977.47;;;18.55;72.00
56400;BME280;42298;53.638;9.876;2022-10-31T10:06:24;101984.84;;;18.60;71.57
56400;BME280;42298;53.638;9.876;2022-10-31T10:08:49;101970.09;;;18.51;71.36
56400;BME280;42298;53.638;9.876;2022-10-31T10:14:23;101984.53;;;18.53;70.41
56400;BME280;42298;53.638;9.876;2022-10-31T10:25:21;101978.19;;;18.44;72.73
56400;BME280;42298;53.638;9.876;2022-10-31T10:30:23;101980.25;;;18.55;71.23
56400;BME280;42298;53.638;9.876;2022-10-31T10:32:58;101975.81;;;18.54;71.50
56400;BME280;42298;53.638;9.876;2022-10-31T10:35:29;101979.09;;;18.56;71.34
56400;BME280;42298;53.638;9.876;2022-10-31T10:38:02;101977.44;;;18.64;71.59
56400;BME280;42298;53.638;9.876;2022-10-31T10:40:33;101973.16;;;18.66;71.45
56400;BME280;42298;53.638;9.876;2022-10-31T10:46:16;101977.94;;;18.66;70.62
56400;BME280;42298;53.638;9.876;2022-10-31T10:52:16;101958.16;;;18.42;70.55
56400;BME280;42298;53.638;9.876;2022-10-31T10:54:59;101947.31;;;18.40;70.56
56400;BME280;42298;53.638;9.876;2022-10-31T10:57:56;101941.41;;;18.42;70.48
56400;BME280;42298;53.638;9.876;2022-10-31T11:00:25;101945.81;;;18.43;70.12
56400;BME280;42298;53.638;9.876;2022-10-31T11:02:51;101940.75;;;18.45;70.29
56400;BME280;42298;53.638;9.876;2022-10-31T11:07:55;101945.88;;;18.26;70.85
56400;BME280;42298;53.638;9.876;2022-10-31T11:10:20;101948.66;;;18.26;71.35
56400;BME280;42298;53.638;9.876;2022-10-31T11:13:21;101942.56;;;18.41;71.24
56400;BME280;42298;53.638;9.876;2022-10-31T11:16:03;101939.09;;;18.35;70.09
56400;BME280;42298;53.638;9.876;2022-10-31T11:18:32;101936.00;;;18.37;70.73
56400;BME280;42298;53.638;9.876;2022-10-31T11:21:01;101940.91;;;18.40;69.79
56400;BME280;42298;53.638;9.876;2022-10-31T11:23:28;101948.78;;;18.29;70.13
56400;BME280;42298;53.638;9.876;2022-10-31T11:25:58;101946.66;;;18.35;70.24
56400;BME280;42298;53.638;9.876;2022-10-31T11:28:26;101940.72;;;18.53;70.01
56400;BME280;42298;53.638;9.876;2022-10-31T11:30:59;101934.47;;;18.56;69.36
56400;BME280;42298;53.638;9.876;2022-10-31T11:33:37;101940.50;;;18.67;68.95
56400;BME280;42298;53.638;9.876;2022-10-31T11:36:16;101929.47;;;18.70;68.33
56400;BME280;42298;53.638;9.876;2022-10-31T11:38:43;101928.50;;;18.66;68.41
56400;BME280;42298;53.638;9.876;2022-10-31T11:41:25;101925.25;;;18.64;68.08
56400;BME280;42298;53.638;9.876;2022-10-31T11:43:55;101925.25;;;18.56;68.41
56400;BME280;42298;53.638;9.876;2022-10-31T11:48:53;101926.25;;;18.60;68.03
56400;BME280;42298;53.638;9.876;2022-10-31T11:51:25;101937.59;;;18.55;67.55
56400;BME280;42298;53.638;9.876;2022-10-31T11:53:55;101930.50;;;18.66;68.16
56400;BME280;42298;53.638;9.876;2022-10-31T11:56:22;101934.19;;;18.78;67.60
56400;BME280;42298;53.638;9.876;2022-10-31T11:59:01;101928.94;;;18.77;67.34
56400;BME280;42298;53.638;9.876;2022-10-31T12:01:28;101918.84;;;18.64;67.95
56400;BME280;42298;53.638;9.876;2022-10-31T12:04:14;101906.66;;;18.68;67.68
56400;BME280;42298;53.638;9.876;2022-10-31T12:06:43;101905.72;;;18.64;68.04
56400;BME280;42298;53.638;9.876;2022-10-31T12:09:17;101901.16;;;18.51;67.95
56400;BME280;42298;53.638;9.876;2022-10-31T12:17:19;101902.00;;;18.81;66.54
56400;BME280;42298;53.638;9.876;2022-10-31T12:22:52;101897.38;;;18.85;66.71
56400;BME280;42298;53.638;9.876;2022-10-31T12:28:26;101891.97;;;19.09;65.36
56400;BME280;42298;53.638;9.876;2022-10-31T12:31:08;101895.25;;;19.11;65.48
56400;BME280;42298;53.638;9.876;2022-10-31T12:33:47;101895.78;;;19.25;65.23
56400;BME280;42298;53.638;9.876;2022-10-31T12:36:40;101896.94;;;19.24;65.63
56400;BME280;42298;53.638;9.876;2022-10-31T12:48:01;101894.16;;;19.24;65.78
56400;BME280;42298;53.638;9.876;2022-10-31T12:58:33;101886.13;;;19.02;65.39
56400;BME280;42298;53.638;9.876;2022-10-31T13:01:11;101883.66;;;19.01;65.59
56400;BME280;42298;53.638;9.876;2022-10-31T13:03:58;101882.16;;;19.03;65.42
56400;BME280;42298;53.638;9.876;2022-10-31T13:06:34;101879.38;;;19.03;65.20
56400;BME280;42298;53.638;9.876;2022-10-31T13:09:05;101885.13;;;18.98;65.36
56400;BME280;42298;53.638;9.876;2022-10-31T13:11:36;101872.34;;;18.97;65.28
56400;BME280;42298;53.638;9.876;2022-10-31T13:14:17;101882.34;;;18.98;65.24
56400;BME280;42298;53.638;9.876;2022-10-31T13:16:47;101877.25;;;19.00;64.58
56400;BME280;42298;53.638;9.876;2022-10-31T13:19:29;101876.38;;;19.08;65.00
56400;BME280;42298;53.638;9.876;2022-10-31T13:24:50;101866.16;;;18.91;64.11
56400;BME280;42298;53.638;9.876;2022-10-31T13:27:22;101859.25;;;18.89;64.67
56400;BME280;42298;53.638;9.876;2022-10-31T13:30:01;101857.63;;;18.88;64.74
56400;BME280;42298;53.638;9.876;2022-10-31T13:32:36;101849.16;;;18.76;64.94
56400;BME280;42298;53.638;9.876;2022-10-31T13:35:05;101844.19;;;18.81;65.21
56400;BME280;42298;53.638;9.876;2022-10-31T13:37:43;101839.50;;;18.73;64.78
56400;BME280;42298;53.638;9.876;2022-10-31T13:40:33;101835.53;;;18.74;65.24
56400;BME280;42298;53.638;9.876;2022-10-31T13:43:12;101835.81;;;18.81;64.59
56400;BME280;42298;53.638;9.876;2022-10-31T13:45:50;101834.72;;;18.74;64.94
56400;BME280;42298;53.638;9.876;2022-10-31T13:50:55;101820.88;;;18.57;65.16
56400;BME280;42298;53.638;9.876;2022-10-31T13:53:22;101811.97;;;18.63;65.50
56400;BME280;42298;53.638;9.876;2022-10-31T13:56:03;101808.66;;;18.70;64.77
56400;BME280;42298;53.638;9.876;2022-10-31T13:58:34;101805.69;;;18.66;65.31
56400;BME280;42298;53.638;9.876;2022-10-31T14:01:16;101805.09;;;18.61;65.32
56400;BME280;42298;53.638;9.876;2022-10-31T14:03:44;101792.84;;;18.53;65.47
56400;BME280;42298;53.638;9.876;2022-10-31T14:06:11;101787.31;;;18.45;66.06
56400;BME280;42298;53.638;9.876;2022-10-31T14:08:41;101787.09;;;18.50;65.72
56400;BME280;42298;53.638;9.876;2022-10-31T14:11:26;101784.13;;;18.55;65.21
56400;BME280;42298;53.638;9.876;2022-10-31T14:13:56;101771.53;;;18.49;65.66
56400;BME280;42298;53.638;9.876;2022-10-31T14:18:56;101769.56;;;18.49;66.21
56400;BME280;42298;53.638;9.876;2022-10-31T14:23:47;101755.34;;;18.34;66.38
56400;BME280;42298;53.638;9.876;2022-10-31T14:28:51;101756.69;;;18.28;66.47
56400;BME280;42298;53.638;9.876;2022-10-31T14:33:52;101753.28;;;18.22;66.97
56400;BME280;42298;53.638;9.876;2022-10-31T14:36:30;101756.69;;;18.28;67.19
56400;BME280;42298;53.638;9.876;2022-10-31T14:39:21;101748.09;;;18.41;66.50
56400;BME280;42298;53.638;9.876;2022-10-31T14:47:31;101701.81;;;18.20;66.69
56400;BME280;42298;53.638;9.876;2022-10-31T14:52:56;101710.34;;;18.15;66.74
56400;BME280;42298;53.638;9.876;2022-10-31T14:55:23;101724.47;;;18.10;67.13
56400;BME280;42298;53.638;9.876;2022-10-31T14:57:54;101723.00;;;18.12;67.33
56400;BME280;42298;53.638;9.876;2022-10-31T15:00:22;101737.06;;;18.16;67.31